createdAt,value
2016-07-02T00:00:11.623Z,18.42
2016-07-02T00:01:11.622Z,18.36
2016-07-02T00:02:11.614Z,18.34
2016-07-02T00:03:11.618Z,18.37
2016-07-02T00:04:11.620Z,18.39
2016-07-02T00:05:11.621Z,18.39
2016-07-02T00:06:11.622Z,18.45
2016-07-02T00:07:11.618Z,18.34
2016-07-02T00:08:11.621Z,18.43
2016-07-02T00:09:11.631Z,18.39
2016-07-02T00:10:11.642Z,18.28
2016-07-02T00:11:11.626Z,18.34
2016-07-02T00:12:11.634Z,18.34
2016-07-02T00:13:11.628Z,18.3
2016-07-02T00:14:11.632Z,18.34
2016-07-02T00:15:11.642Z,18.3
2016-07-02T00:16:11.643Z,18.3
2016-07-02T00:17:11.651Z,18.37
2016-07-02T00:18:11.646Z,18.3
2016-07-02T00:19:11.644Z,18.33
2016-07-02T00:20:11.645Z,18.28
2016-07-02T00:21:11.646Z,18.3
2016-07-02T00:22:11.651Z,18.31
2016-07-02T00:23:11.648Z,18.28
2016-07-02T00:24:11.654Z,18.26
2016-07-02T00:25:11.658Z,18.18
2016-07-02T00:26:11.654Z,18.31
2016-07-02T00:27:11.659Z,18.33
2016-07-02T00:28:11.659Z,18.24
2016-07-02T00:29:11.667Z,18.27
2016-07-02T00:30:11.671Z,18.27
2016-07-02T00:31:11.671Z,18.24
2016-07-02T00:32:11.671Z,18.12
2016-07-02T00:33:11.667Z,18.11
2016-07-02T00:34:11.671Z,18.11
2016-07-02T00:35:11.665Z,18.12
2016-07-02T00:36:11.664Z,18.12
2016-07-02T00:37:11.671Z,18.09
2016-07-02T00:38:11.671Z,18.06
2016-07-02T00:39:11.673Z,17.95
2016-07-02T00:40:11.676Z,18.11
2016-07-02T00:41:11.681Z,17.94
2016-07-02T00:42:11.677Z,18.06
2016-07-02T00:43:11.686Z,17.93
2016-07-02T00:44:11.682Z,17.88
2016-07-02T00:45:11.691Z,18.03
2016-07-02T00:46:11.694Z,17.97
2016-07-02T00:47:11.685Z,18.03
2016-07-02T00:48:11.699Z,17.97
2016-07-02T00:49:11.695Z,17.91
2016-07-02T00:50:11.079Z,17.95
2016-07-02T00:51:11.699Z,17.82
2016-07-02T00:52:11.701Z,17.88
2016-07-02T00:53:11.699Z,17.8
2016-07-02T00:54:11.707Z,17.76
2016-07-02T00:55:11.711Z,17.79
2016-07-02T00:56:11.708Z,17.79
2016-07-02T00:57:11.704Z,17.86
2016-07-02T00:58:11.711Z,17.82
2016-07-02T00:59:11.711Z,17.71
2016-07-02T01:00:11.723Z,17.71
2016-07-02T01:01:11.720Z,17.73
2016-07-02T01:02:11.723Z,17.75
2016-07-02T01:03:11.714Z,17.71
2016-07-02T01:04:11.722Z,17.65
2016-07-02T01:05:11.099Z,17.69
2016-07-02T01:06:11.727Z,17.6
2016-07-02T01:07:11.730Z,17.57
2016-07-02T01:08:11.726Z,17.65
2016-07-02T01:09:11.732Z,17.65
2016-07-02T01:10:11.730Z,17.65
2016-07-02T01:11:11.745Z,17.56
2016-07-02T01:12:11.725Z,17.47
2016-07-02T01:13:11.730Z,17.46
2016-07-02T01:14:11.734Z,17.39
2016-07-02T01:15:11.733Z,17.5
2016-07-02T01:16:11.742Z,17.47
2016-07-02T01:17:11.741Z,17.44
2016-07-02T01:18:11.838Z,17.47
2016-07-02T01:19:11.749Z,17.46
2016-07-02T01:20:11.749Z,17.39
2016-07-02T01:21:11.765Z,17.46
2016-07-02T01:22:11.750Z,17.35
2016-07-02T01:23:11.757Z,17.35
2016-07-02T01:24:11.749Z,17.34
2016-07-02T01:25:11.752Z,17.39
2016-07-02T01:26:11.753Z,17.38
2016-07-02T01:27:11.765Z,17.42
2016-07-02T01:28:11.765Z,17.38
2016-07-02T01:29:11.757Z,17.32
2016-07-02T01:30:11.762Z,17.41
2016-07-02T01:31:11.777Z,17.41
2016-07-02T01:32:11.765Z,17.37
2016-07-02T01:33:11.773Z,17.44
2016-07-02T01:34:11.765Z,17.47
2016-07-02T01:35:11.773Z,17.42
2016-07-02T01:36:11.150Z,17.41
2016-07-02T01:37:11.774Z,17.42
2016-07-02T01:38:11.778Z,17.39
2016-07-02T01:39:11.782Z,17.42
2016-07-02T01:40:11.774Z,17.41
2016-07-02T01:41:11.803Z,17.46
2016-07-02T01:42:11.784Z,17.46
2016-07-02T01:43:11.782Z,17.42
2016-07-02T01:44:11.795Z,17.39
2016-07-02T01:45:11.791Z,17.42
2016-07-02T01:46:11.795Z,17.41
2016-07-02T01:47:11.805Z,17.39
2016-07-02T01:48:11.809Z,17.44
2016-07-02T01:49:11.819Z,17.49
2016-07-02T01:50:11.795Z,17.39
2016-07-02T01:51:11.815Z,17.41
2016-07-02T01:52:11.802Z,17.41
2016-07-02T01:53:11.801Z,17.35
2016-07-02T01:54:11.812Z,17.38
2016-07-02T01:55:11.823Z,17.38
2016-07-02T01:56:11.801Z,17.35
2016-07-02T01:57:11.813Z,17.37
2016-07-02T01:58:11.808Z,17.32
2016-07-02T01:59:11.828Z,17.3
2016-07-02T02:00:11.817Z,17.28
2016-07-02T02:01:11.820Z,17.27
2016-07-02T02:02:11.824Z,17.27
2016-07-02T02:03:11.821Z,17.28
2016-07-02T02:04:11.824Z,17.28
2016-07-02T02:05:11.814Z,17.27
2016-07-02T02:06:11.816Z,17.2
2016-07-02T02:07:11.829Z,17.19
2016-07-02T02:08:11.825Z,17.16
2016-07-02T02:09:11.828Z,17.16
2016-07-02T02:10:11.838Z,17.2
2016-07-02T02:11:11.825Z,17.2
2016-07-02T02:12:11.823Z,17.14
2016-07-02T02:13:11.847Z,17.14
2016-07-02T02:14:11.834Z,17.13
2016-07-02T02:15:11.838Z,17.16
2016-07-02T02:16:11.841Z,17.13
2016-07-02T02:17:11.842Z,17.16
2016-07-02T02:18:11.838Z,17.12
2016-07-02T02:19:11.840Z,17.1
2016-07-02T02:20:11.839Z,17.17
2016-07-02T02:21:11.842Z,17.17
2016-07-02T02:22:11.850Z,17.12
2016-07-02T02:23:11.854Z,17.12
2016-07-02T02:24:11.847Z,17.14
2016-07-02T02:25:11.865Z,17.14
2016-07-02T02:26:11.854Z,17.14
2016-07-02T02:27:11.857Z,17.1
2016-07-02T02:28:11.859Z,17.13
2016-07-02T02:29:11.863Z,17.12
2016-07-02T02:30:11.855Z,17.07
2016-07-02T02:31:11.859Z,17.12
2016-07-02T02:32:11.859Z,17.19
2016-07-02T02:33:11.859Z,17.14
2016-07-02T02:34:11.867Z,17.14
2016-07-02T02:35:11.872Z,17.14
2016-07-02T02:36:11.883Z,17.16
2016-07-02T02:37:11.872Z,17.16
2016-07-02T02:38:11.872Z,17.17
2016-07-02T02:39:11.879Z,17.13
2016-07-02T02:40:11.875Z,17.1
2016-07-02T02:41:11.871Z,17.14
2016-07-02T02:42:11.871Z,17.16
2016-07-02T02:43:11.879Z,17.14
2016-07-02T02:44:11.871Z,17.19
2016-07-02T02:45:11.898Z,17.12
2016-07-02T02:46:11.887Z,17.1
2016-07-02T02:47:11.893Z,17.14
2016-07-02T02:48:11.889Z,17.17
2016-07-02T02:49:11.890Z,17.14
2016-07-02T02:50:11.894Z,17.14
2016-07-02T02:51:11.894Z,17.16
2016-07-02T02:52:11.898Z,17.12
2016-07-02T02:53:11.898Z,17.19
2016-07-02T02:54:11.898Z,17.09
2016-07-02T02:55:11.898Z,17.16
2016-07-02T02:56:11.897Z,17.17
2016-07-02T02:57:11.901Z,17.19
2016-07-02T02:58:11.905Z,17.14
2016-07-02T02:59:11.906Z,17.13
2016-07-02T03:00:11.894Z,17.13
2016-07-02T03:01:11.901Z,17.1
2016-07-02T03:02:11.281Z,17.05
2016-07-02T03:03:11.905Z,17.13
2016-07-02T03:04:11.913Z,17.16
2016-07-02T03:05:11.905Z,17.07
2016-07-02T03:06:11.909Z,17.16
2016-07-02T03:07:11.917Z,17.14
2016-07-02T03:08:11.909Z,17.07
2016-07-02T03:09:11.913Z,17.12
2016-07-02T03:10:11.921Z,17.16
2016-07-02T03:11:11.911Z,17.13
2016-07-02T03:12:11.921Z,17.09
2016-07-02T03:13:11.929Z,17.13
2016-07-02T03:14:11.916Z,17.16
2016-07-02T03:15:11.925Z,17.16
2016-07-02T03:16:11.920Z,17.19
2016-07-02T03:17:11.921Z,17.16
2016-07-02T03:18:11.924Z,17.13
2016-07-02T03:19:11.926Z,17.14
2016-07-02T03:20:11.940Z,17.22
2016-07-02T03:21:11.937Z,17.2
2016-07-02T03:22:11.933Z,17.2
2016-07-02T03:23:11.935Z,17.23
2016-07-02T03:24:11.942Z,17.27
2016-07-02T03:25:11.929Z,17.23
2016-07-02T03:26:11.940Z,17.24
2016-07-02T03:27:11.937Z,17.27
2016-07-02T03:28:11.952Z,17.24
2016-07-02T03:29:11.949Z,17.2
2016-07-02T03:30:11.948Z,17.27
2016-07-02T03:31:11.945Z,17.3
2016-07-02T03:32:11.952Z,17.31
2016-07-02T03:33:11.326Z,17.27
2016-07-02T03:34:11.964Z,17.31
2016-07-02T03:35:11.969Z,17.32
2016-07-02T03:36:11.963Z,17.38
2016-07-02T03:37:11.961Z,17.32
2016-07-02T03:38:11.953Z,17.42
2016-07-02T03:39:11.952Z,17.44
2016-07-02T03:40:11.965Z,17.49
2016-07-02T03:41:11.961Z,17.47
2016-07-02T03:42:11.965Z,17.57
2016-07-02T03:43:11.964Z,17.6
2016-07-02T03:44:11.969Z,17.6
2016-07-02T03:45:11.964Z,17.69
2016-07-02T03:46:11.973Z,17.71
2016-07-02T03:47:11.968Z,17.69
2016-07-02T03:48:11.977Z,17.69
2016-07-02T03:49:11.968Z,17.71
2016-07-02T03:50:11.973Z,17.75
2016-07-02T03:51:11.348Z,17.76
2016-07-02T03:52:11.977Z,17.82
2016-07-02T03:53:11.976Z,17.8
2016-07-02T03:54:11.977Z,17.93
2016-07-02T03:55:11.986Z,17.94
2016-07-02T03:56:11.982Z,17.94
2016-07-02T03:57:11.979Z,18.03
2016-07-02T03:58:11.991Z,18.11
2016-07-02T03:59:11.987Z,18.08
2016-07-02T04:00:12.003Z,18.18
2016-07-02T04:01:11.992Z,18.18
2016-07-02T04:02:11.991Z,18.12
2016-07-02T04:03:12.003Z,18.16
2016-07-02T04:04:11.996Z,18.23
2016-07-02T04:05:11.363Z,18.09
2016-07-02T04:06:11.990Z,18.13
2016-07-02T04:07:11.999Z,18.13
2016-07-02T04:08:12.004Z,18.11
2016-07-02T04:09:11.995Z,18.12
2016-07-02T04:10:12.000Z,18.15
2016-07-02T04:11:11.999Z,18.19
2016-07-02T04:12:12.004Z,18.12
2016-07-02T04:13:11.993Z,18.11
2016-07-02T04:14:12.004Z,18.15
2016-07-02T04:15:12.011Z,18.12
2016-07-02T04:16:12.016Z,18.13
2016-07-02T04:17:12.012Z,18.09
2016-07-02T04:18:12.017Z,18.26
2016-07-02T04:19:12.020Z,18.26
2016-07-02T04:20:12.020Z,18.27
2016-07-02T04:21:12.024Z,18.26
2016-07-02T04:22:12.025Z,18.31
2016-07-02T04:23:12.024Z,18.43
2016-07-02T04:24:12.029Z,18.42
2016-07-02T04:25:12.028Z,18.42
2016-07-02T04:26:12.026Z,18.42
2016-07-02T04:27:12.024Z,18.57
2016-07-02T04:28:12.030Z,18.57
2016-07-02T04:29:12.034Z,18.53
2016-07-02T04:30:11.411Z,18.51
2016-07-02T04:31:12.034Z,18.63
2016-07-02T04:32:12.034Z,18.66
2016-07-02T04:33:12.035Z,18.66
2016-07-02T04:34:12.044Z,18.7
2016-07-02T04:35:12.028Z,18.67
2016-07-02T04:36:12.049Z,18.68
2016-07-02T04:37:12.047Z,18.86
2016-07-02T04:38:12.044Z,18.86
2016-07-02T04:39:12.036Z,18.85
2016-07-02T04:40:12.043Z,18.97
2016-07-02T04:41:12.044Z,18.89
2016-07-02T04:42:12.042Z,18.89
2016-07-02T04:43:12.061Z,18.92
2016-07-02T04:44:12.050Z,18.94
2016-07-02T04:45:12.053Z,18.98
2016-07-02T04:46:12.064Z,19.04
2016-07-02T04:47:12.060Z,19.01
2016-07-02T04:48:12.060Z,19.11
2016-07-02T04:49:12.065Z,19.2
2016-07-02T04:50:12.069Z,19.27
2016-07-02T04:51:12.069Z,19.23
2016-07-02T04:52:12.073Z,19.26
2016-07-02T04:53:12.075Z,19.32
2016-07-02T04:54:12.063Z,19.41
2016-07-02T04:55:11.439Z,19.45
2016-07-02T04:56:12.069Z,19.47
2016-07-02T04:57:12.067Z,19.56
2016-07-02T04:58:12.081Z,19.63
2016-07-02T04:59:11.446Z,19.67
2016-07-02T05:00:12.076Z,19.7
2016-07-02T05:01:12.081Z,19.66
2016-07-02T05:02:12.083Z,19.75
2016-07-02T05:03:12.085Z,19.82
2016-07-02T05:04:12.090Z,19.81
2016-07-02T05:05:12.081Z,19.79
2016-07-02T05:06:12.090Z,19.78
2016-07-02T05:07:12.084Z,19.87
2016-07-02T05:08:12.083Z,19.99
2016-07-02T05:09:12.089Z,20.17
2016-07-02T05:10:12.082Z,20.29
2016-07-02T05:11:12.101Z,20.48
2016-07-02T05:12:12.097Z,20.49
2016-07-02T05:13:12.091Z,20.63
2016-07-02T05:14:12.104Z,20.73
2016-07-02T05:15:12.093Z,20.71
2016-07-02T05:16:12.098Z,20.71
2016-07-02T05:17:12.096Z,20.71
2016-07-02T05:18:12.097Z,20.77
2016-07-02T05:19:12.100Z,20.82
2016-07-02T05:20:12.102Z,20.74
2016-07-02T05:21:12.110Z,20.67
2016-07-02T05:22:12.114Z,20.64
2016-07-02T05:23:12.110Z,20.71
2016-07-02T05:24:12.166Z,20.55
2016-07-02T05:25:12.118Z,20.63
2016-07-02T05:26:12.118Z,20.59
2016-07-02T05:27:12.114Z,20.56
2016-07-02T05:28:12.122Z,20.52
2016-07-02T05:29:12.118Z,20.5
2016-07-02T05:30:12.118Z,20.49
2016-07-02T05:31:12.130Z,20.33
2016-07-02T05:32:12.123Z,20.46
2016-07-02T05:33:11.498Z,20.39
2016-07-02T05:34:12.131Z,20.44
2016-07-02T05:35:12.134Z,20.4
2016-07-02T05:36:12.126Z,20.46
2016-07-02T05:37:12.129Z,20.59
2016-07-02T05:38:11.509Z,20.59
2016-07-02T05:39:12.139Z,20.66
2016-07-02T05:40:12.128Z,20.68
2016-07-02T05:41:12.133Z,20.7
2016-07-02T05:42:12.133Z,20.75
2016-07-02T05:43:12.141Z,20.71
2016-07-02T05:44:12.135Z,20.74
2016-07-02T05:45:12.141Z,20.78
2016-07-02T05:46:12.139Z,20.78
2016-07-02T05:47:12.148Z,20.75
2016-07-02T05:48:12.147Z,20.74
2016-07-02T05:49:12.152Z,20.71
2016-07-02T05:50:12.147Z,20.75
2016-07-02T05:51:12.147Z,20.66
2016-07-02T05:52:12.147Z,20.64
2016-07-02T05:53:12.156Z,20.53
2016-07-02T05:54:12.156Z,20.59
2016-07-02T05:55:12.161Z,20.58
2016-07-02T05:56:12.159Z,20.52
2016-07-02T05:57:12.165Z,20.42
2016-07-02T05:58:12.149Z,20.42
2016-07-02T05:59:12.160Z,20.49
2016-07-02T06:00:12.159Z,20.42
2016-07-02T06:01:12.168Z,20.49
2016-07-02T06:02:12.159Z,20.48
2016-07-02T06:03:12.161Z,20.39
2016-07-02T06:04:12.167Z,20.39
2016-07-02T06:05:12.168Z,20.33
2016-07-02T06:06:12.167Z,20.33
2016-07-02T06:07:12.176Z,20.3
2016-07-02T06:08:12.179Z,20.17
2016-07-02T06:09:12.179Z,20.21
2016-07-02T06:10:12.175Z,20.22
2016-07-02T06:11:12.180Z,20.18
2016-07-02T06:12:12.171Z,20.19
2016-07-02T06:13:12.179Z,20.17
2016-07-02T06:14:12.179Z,20.12
2016-07-02T06:15:12.198Z,20.17
2016-07-02T06:16:12.192Z,20.15
2016-07-02T06:17:12.184Z,20.04
2016-07-02T06:18:12.186Z,20.08
2016-07-02T06:19:12.184Z,20
2016-07-02T06:20:12.198Z,20
2016-07-02T06:21:12.196Z,19.93
2016-07-02T06:22:12.196Z,19.92
2016-07-02T06:23:12.204Z,19.84
2016-07-02T06:24:12.177Z,19.82
2016-07-02T06:25:12.164Z,19.87
2016-07-02T06:26:12.169Z,19.84
2016-07-02T06:27:12.179Z,19.89
2016-07-02T06:28:12.201Z,19.82
2016-07-02T06:29:12.205Z,19.85
2016-07-02T06:30:12.203Z,19.84
2016-07-02T06:31:12.206Z,19.82
2016-07-02T06:32:12.207Z,19.78
2016-07-02T06:33:12.220Z,19.93
2016-07-02T06:34:11.585Z,19.89
2016-07-02T06:35:12.209Z,19.94
2016-07-02T06:36:12.200Z,19.89
2016-07-02T06:37:12.215Z,19.93
2016-07-02T06:38:12.221Z,19.97
2016-07-02T06:39:12.228Z,19.97
2016-07-02T06:40:12.225Z,20.02
2016-07-02T06:41:12.220Z,20.14
2016-07-02T06:42:12.225Z,20.11
2016-07-02T06:43:12.233Z,20.24
2016-07-02T06:44:12.225Z,20.17
2016-07-02T06:45:12.233Z,20.19
2016-07-02T06:46:11.601Z,20.26
2016-07-02T06:47:12.232Z,20.33
2016-07-02T06:48:12.240Z,20.39
2016-07-02T06:49:12.230Z,20.48
2016-07-02T06:50:12.241Z,20.53
2016-07-02T06:51:12.245Z,20.6
2016-07-02T06:52:12.245Z,20.67
2016-07-02T06:53:12.249Z,20.64
2016-07-02T06:54:12.245Z,20.66
2016-07-02T06:55:12.264Z,20.6
2016-07-02T06:56:12.253Z,20.67
2016-07-02T06:57:12.253Z,20.66
2016-07-02T06:58:12.257Z,20.66
2016-07-02T06:59:12.261Z,20.53
2016-07-02T07:00:12.249Z,20.58
2016-07-02T07:01:11.629Z,20.48
2016-07-02T07:02:12.252Z,20.49
2016-07-02T07:03:12.264Z,20.34
2016-07-02T07:04:12.257Z,20.24
2016-07-02T07:05:12.258Z,20.15
2016-07-02T07:06:12.258Z,20.15
2016-07-02T07:07:12.264Z,20.14
2016-07-02T07:08:12.263Z,20.08
2016-07-02T07:09:12.277Z,20.03
2016-07-02T07:10:12.272Z,19.93
2016-07-02T07:11:12.265Z,19.99
2016-07-02T07:12:12.269Z,20
2016-07-02T07:13:12.279Z,19.92
2016-07-02T07:14:12.277Z,19.79
2016-07-02T07:15:12.277Z,19.92
2016-07-02T07:16:12.277Z,19.82
2016-07-02T07:17:12.274Z,19.93
2016-07-02T07:18:12.281Z,19.85
2016-07-02T07:19:12.292Z,19.93
2016-07-02T07:20:12.286Z,20
2016-07-02T07:21:12.294Z,19.97
2016-07-02T07:22:12.294Z,19.92
2016-07-02T07:23:12.284Z,20.1
2016-07-02T07:24:12.288Z,20.15
2016-07-02T07:25:12.288Z,20.12
2016-07-02T07:26:12.295Z,20.18
2016-07-02T07:27:12.295Z,20.19
2016-07-02T07:28:12.303Z,20.33
2016-07-02T07:29:12.289Z,20.36
2016-07-02T07:30:12.300Z,20.32
2016-07-02T07:31:12.298Z,20.42
2016-07-02T07:32:12.306Z,20.44
2016-07-02T07:33:12.303Z,20.52
2016-07-02T07:34:12.315Z,20.46
2016-07-02T07:35:12.308Z,20.52
2016-07-02T07:36:12.308Z,20.49
2016-07-02T07:37:12.317Z,20.5
2016-07-02T07:38:12.310Z,20.58
2016-07-02T07:39:12.312Z,20.56
2016-07-02T07:40:12.325Z,20.67
2016-07-02T07:41:12.312Z,20.75
2016-07-02T07:42:12.320Z,20.86
2016-07-02T07:43:12.325Z,20.95
2016-07-02T07:44:12.320Z,21.01
2016-07-02T07:45:12.332Z,21.01
2016-07-02T07:46:12.332Z,20.95
2016-07-02T07:47:12.333Z,20.9
2016-07-02T07:48:12.328Z,20.98
2016-07-02T07:49:12.337Z,21
2016-07-02T07:50:12.332Z,21.05
2016-07-02T07:51:12.337Z,21
2016-07-02T07:52:12.336Z,21
2016-07-02T07:53:12.339Z,21.01
2016-07-02T07:54:12.348Z,21.03
2016-07-02T07:55:12.356Z,21.03
2016-07-02T07:56:12.344Z,21.05
2016-07-02T07:57:12.348Z,21.03
2016-07-02T07:58:12.344Z,20.98
2016-07-02T07:59:12.347Z,21.05
2016-07-02T08:00:12.352Z,21.01
2016-07-02T08:01:12.352Z,20.92
2016-07-02T08:02:12.353Z,20.96
2016-07-02T08:03:12.352Z,21.01
2016-07-02T08:04:12.353Z,20.9
2016-07-02T08:05:12.366Z,20.89
2016-07-02T08:06:12.354Z,20.86
2016-07-02T08:07:12.358Z,20.85
2016-07-02T08:08:12.360Z,20.8
2016-07-02T08:09:12.368Z,20.75
2016-07-02T08:10:11.740Z,20.77
2016-07-02T08:11:12.372Z,20.73
2016-07-02T08:12:12.364Z,20.64
2016-07-02T08:13:12.381Z,20.66
2016-07-02T08:14:12.376Z,20.71
2016-07-02T08:15:12.376Z,20.67
2016-07-02T08:16:12.378Z,20.68
2016-07-02T08:17:12.372Z,20.73
2016-07-02T08:18:12.376Z,20.82
2016-07-02T08:19:12.380Z,20.82
2016-07-02T08:20:12.390Z,20.88
2016-07-02T08:21:12.385Z,20.86
2016-07-02T08:22:12.389Z,20.85
2016-07-02T08:23:12.386Z,21.07
2016-07-02T08:24:12.393Z,21.01
2016-07-02T08:25:12.393Z,21.01
2016-07-02T08:26:12.389Z,21.07
2016-07-02T08:27:12.388Z,21.03
2016-07-02T08:28:12.396Z,21
2016-07-02T08:29:12.393Z,21.01
2016-07-02T08:30:12.394Z,20.85
2016-07-02T08:31:12.404Z,20.83
2016-07-02T08:32:12.402Z,20.74
2016-07-02T08:33:11.772Z,20.7
2016-07-02T08:34:12.413Z,20.68
2016-07-02T08:35:11.777Z,20.58
2016-07-02T08:36:12.410Z,20.66
2016-07-02T08:37:12.412Z,20.56
2016-07-02T08:38:12.407Z,20.44
2016-07-02T08:39:12.408Z,20.55
2016-07-02T08:40:12.407Z,20.5
2016-07-02T08:41:12.413Z,20.49
2016-07-02T08:42:12.413Z,20.49
2016-07-02T08:43:12.412Z,20.4
2016-07-02T08:44:12.423Z,20.59
2016-07-02T08:45:12.419Z,20.58
2016-07-02T08:46:12.428Z,20.64
2016-07-02T08:47:12.419Z,20.63
2016-07-02T08:48:12.426Z,20.67
2016-07-02T08:49:12.423Z,20.74
2016-07-02T08:50:12.423Z,20.75
2016-07-02T08:51:12.429Z,20.92
2016-07-02T08:52:12.427Z,20.86
2016-07-02T08:53:12.437Z,21.01
2016-07-02T08:54:12.436Z,21.04
2016-07-02T08:55:12.431Z,21.03
2016-07-02T08:56:12.453Z,21.13
2016-07-02T08:57:12.439Z,21.11
2016-07-02T08:58:12.438Z,21.11
2016-07-02T08:59:12.449Z,21.1
2016-07-02T09:00:12.449Z,21.11
2016-07-02T09:01:12.443Z,21.03
2016-07-02T09:02:11.842Z,21.04
2016-07-02T09:03:12.446Z,21.01
2016-07-02T09:04:12.451Z,20.98
2016-07-02T09:05:12.447Z,20.95
2016-07-02T09:06:12.454Z,20.96
2016-07-02T09:07:12.453Z,21
2016-07-02T09:08:12.452Z,21
2016-07-02T09:09:12.460Z,20.98
2016-07-02T09:10:11.832Z,20.92
2016-07-02T09:11:12.461Z,21
2016-07-02T09:12:11.836Z,21.01
2016-07-02T09:13:12.469Z,21.03
2016-07-02T09:14:12.466Z,21.11
2016-07-02T09:15:12.473Z,21.14
2016-07-02T09:16:12.469Z,21.11
2016-07-02T09:17:12.469Z,21.1
2016-07-02T09:18:12.530Z,21.14
2016-07-02T09:19:12.475Z,21.11
2016-07-02T09:20:12.476Z,21.19
2016-07-02T09:21:12.482Z,21.22
2016-07-02T09:22:11.848Z,21.28
2016-07-02T09:23:12.481Z,21.26
2016-07-02T09:24:12.483Z,21.28
2016-07-02T09:25:12.482Z,21.23
2016-07-02T09:26:12.484Z,21.25
2016-07-02T09:27:12.490Z,21.28
2016-07-02T09:28:12.488Z,21.26
2016-07-02T09:29:11.860Z,21.28
2016-07-02T09:30:12.499Z,21.25
2016-07-02T09:31:12.503Z,21.11
2016-07-02T09:32:12.500Z,21.04
2016-07-02T09:33:12.502Z,21.04
2016-07-02T09:34:12.496Z,21
2016-07-02T09:35:12.497Z,20.9
2016-07-02T09:36:12.501Z,20.85
2016-07-02T09:37:12.501Z,20.82
2016-07-02T09:38:12.517Z,20.75
2016-07-02T09:39:12.515Z,20.67
2016-07-02T09:40:12.505Z,20.67
2016-07-02T09:41:12.513Z,20.67
2016-07-02T09:42:12.509Z,20.67
2016-07-02T09:43:12.516Z,20.67
2016-07-02T09:44:12.519Z,20.7
2016-07-02T09:45:12.516Z,20.71
2016-07-02T09:46:12.528Z,20.73
2016-07-02T09:47:12.516Z,20.71
2016-07-02T09:48:12.528Z,20.74
2016-07-02T09:49:12.520Z,20.71
2016-07-02T09:50:12.531Z,20.85
2016-07-02T09:51:12.531Z,20.78
2016-07-02T09:52:12.526Z,20.86
2016-07-02T09:53:12.529Z,20.9
2016-07-02T09:54:12.533Z,20.89
2016-07-02T09:55:12.531Z,20.89
2016-07-02T09:56:12.543Z,20.9
2016-07-02T09:57:12.536Z,20.85
2016-07-02T09:58:12.538Z,20.89
2016-07-02T09:59:12.540Z,20.93
2016-07-02T10:00:12.536Z,20.98
2016-07-02T10:01:12.520Z,21
2016-07-02T10:02:12.528Z,21.04
2016-07-02T10:03:12.520Z,21.05
2016-07-02T10:04:12.532Z,21.1
2016-07-02T10:05:12.523Z,21
2016-07-02T10:06:12.550Z,21.13
2016-07-02T10:07:12.552Z,21.03
2016-07-02T10:08:12.556Z,21.07
2016-07-02T10:09:12.559Z,21.14
2016-07-02T10:10:12.558Z,21.11
2016-07-02T10:11:12.559Z,21.03
2016-07-02T10:12:12.556Z,21.14
2016-07-02T10:13:12.569Z,21.07
2016-07-02T10:14:12.565Z,21.1
2016-07-02T10:15:12.560Z,21.13
2016-07-02T10:16:12.563Z,21.14
2016-07-02T10:17:12.563Z,21.13
2016-07-02T10:18:12.568Z,21.07
2016-07-02T10:19:12.571Z,21.13
2016-07-02T10:20:12.570Z,21.1
2016-07-02T10:21:12.577Z,21.08
2016-07-02T10:22:12.572Z,21.13
2016-07-02T10:23:12.575Z,21.15
2016-07-02T10:24:12.574Z,21.25
2016-07-02T10:25:12.575Z,21.2
2016-07-02T10:26:12.580Z,21.38
2016-07-02T10:27:12.585Z,21.43
2016-07-02T10:28:12.580Z,21.35
2016-07-02T10:29:12.582Z,21.41
2016-07-02T10:30:12.578Z,21.5
2016-07-02T10:31:12.589Z,21.56
2016-07-02T10:32:12.588Z,21.56
2016-07-02T10:33:12.593Z,21.56
2016-07-02T10:34:12.596Z,21.72
2016-07-02T10:35:12.596Z,21.88
2016-07-02T10:36:12.596Z,21.88
2016-07-02T10:37:12.601Z,22.06
2016-07-02T10:38:12.607Z,22.15
2016-07-02T10:39:12.608Z,22.19
2016-07-02T10:40:12.593Z,22.34
2016-07-02T10:41:12.608Z,22.33
2016-07-02T10:42:12.597Z,22.49
2016-07-02T10:43:12.598Z,22.49
2016-07-02T10:44:12.601Z,22.47
2016-07-02T10:45:12.608Z,22.62
2016-07-02T10:46:12.613Z,22.74
2016-07-02T10:47:12.610Z,22.78
2016-07-02T10:48:12.612Z,23.08
2016-07-02T10:49:12.616Z,23.18
2016-07-02T10:50:12.614Z,23.28
2016-07-02T10:51:12.632Z,23.51
2016-07-02T10:52:12.630Z,23.71
2016-07-02T10:53:12.624Z,23.89
2016-07-02T10:54:12.622Z,23.96
2016-07-02T10:55:12.625Z,24.09
2016-07-02T10:56:12.629Z,24.09
2016-07-02T10:57:12.629Z,23.95
2016-07-02T10:58:12.632Z,23.99
2016-07-02T10:59:12.627Z,23.77
2016-07-02T11:00:12.647Z,23.74
2016-07-02T11:01:12.635Z,23.62
2016-07-02T11:02:12.639Z,23.56
2016-07-02T11:03:12.643Z,23.48
2016-07-02T11:04:12.644Z,23.32
2016-07-02T11:05:12.633Z,23.4
2016-07-02T11:06:12.645Z,23.37
2016-07-02T11:07:12.651Z,23.39
2016-07-02T11:08:12.645Z,23.32
2016-07-02T11:09:12.659Z,23.32
2016-07-02T11:10:12.671Z,23.21
2016-07-02T11:11:12.651Z,23.21
2016-07-02T11:12:12.652Z,23.2
2016-07-02T11:13:12.656Z,23.18
2016-07-02T11:14:12.656Z,23.2
2016-07-02T11:15:12.657Z,23.18
2016-07-02T11:16:12.664Z,23.17
2016-07-02T11:17:12.661Z,23.32
2016-07-02T11:18:12.665Z,23.44
2016-07-02T11:19:12.665Z,23.39
2016-07-02T11:20:12.671Z,23.54
2016-07-02T11:21:12.668Z,23.74
2016-07-02T11:22:12.670Z,23.79
2016-07-02T11:23:12.678Z,23.86
2016-07-02T11:24:12.674Z,23.92
2016-07-02T11:25:12.678Z,24.03
2016-07-02T11:26:12.678Z,24.03
2016-07-02T11:27:12.683Z,24.14
2016-07-02T11:28:12.682Z,24.25
2016-07-02T11:29:12.688Z,24.37
2016-07-02T11:30:12.683Z,24.48
2016-07-02T11:31:12.686Z,24.51
2016-07-02T11:32:12.687Z,24.82
2016-07-02T11:33:12.689Z,25.11
2016-07-02T11:34:12.691Z,25.24
2016-07-02T11:35:12.692Z,25.44
2016-07-02T11:36:12.696Z,25.76
2016-07-02T11:37:12.697Z,25.92
2016-07-02T11:38:12.699Z,26.13
2016-07-02T11:39:12.709Z,26.39
2016-07-02T11:40:12.707Z,26.63
2016-07-02T11:41:12.704Z,26.83
2016-07-02T11:42:12.708Z,26.91
2016-07-02T11:43:12.717Z,26.86
2016-07-02T11:44:12.711Z,26.78
2016-07-02T11:45:12.723Z,26.82
2016-07-02T11:46:12.720Z,26.55
2016-07-02T11:47:12.716Z,26.48
2016-07-02T11:48:12.724Z,26.37
2016-07-02T11:49:12.725Z,26.37
2016-07-02T11:50:12.725Z,26.34
2016-07-02T11:51:12.733Z,26.39
2016-07-02T11:52:12.725Z,26.3
2016-07-02T11:53:12.729Z,26.27
2016-07-02T11:54:12.738Z,26.41
2016-07-02T11:55:12.729Z,26.48
2016-07-02T11:56:12.837Z,26.51
2016-07-02T11:57:12.745Z,26.6
2016-07-02T11:58:12.743Z,26.63
2016-07-02T11:59:12.746Z,26.71
2016-07-02T12:00:12.746Z,26.81
2016-07-02T12:01:12.747Z,26.86
2016-07-02T12:02:12.751Z,27.04
2016-07-02T12:03:12.750Z,27.01
2016-07-02T12:04:12.758Z,27.01
2016-07-02T12:05:12.754Z,27.05
2016-07-02T12:06:12.759Z,27.07
2016-07-02T12:07:12.750Z,27.05
2016-07-02T12:08:12.755Z,27.1
2016-07-02T12:09:12.763Z,27.07
2016-07-02T12:10:12.759Z,27.04
2016-07-02T12:11:12.759Z,27.13
2016-07-02T12:12:12.763Z,27.2
2016-07-02T12:13:12.767Z,27.41
2016-07-02T12:14:12.771Z,27.44
2016-07-02T12:15:12.776Z,27.37
2016-07-02T12:16:12.774Z,27.43
2016-07-02T12:17:12.152Z,27.33
2016-07-02T12:18:12.824Z,27.29
2016-07-02T12:19:12.780Z,27.15
2016-07-02T12:20:12.780Z,26.98
2016-07-02T12:21:12.796Z,26.89
2016-07-02T12:22:12.780Z,26.71
2016-07-02T12:23:12.785Z,26.66
2016-07-02T12:24:12.788Z,26.51
2016-07-02T12:25:12.792Z,26.37
2016-07-02T12:26:12.791Z,26.31
2016-07-02T12:27:12.796Z,26.24
2016-07-02T12:28:12.792Z,26.19
2016-07-02T12:29:12.793Z,26.08
2016-07-02T12:30:12.805Z,26.03
2016-07-02T12:31:12.797Z,25.95
2016-07-02T12:32:12.176Z,25.81
2016-07-02T12:33:12.805Z,25.76
2016-07-02T12:34:12.809Z,25.71
2016-07-02T12:35:12.807Z,25.52
2016-07-02T12:36:12.809Z,25.39
2016-07-02T12:37:12.810Z,25.3
2016-07-02T12:38:12.813Z,25.22
2016-07-02T12:39:12.814Z,25.03
2016-07-02T12:40:12.817Z,24.97
2016-07-02T12:41:12.822Z,24.82
2016-07-02T12:42:13.059Z,24.69
2016-07-02T12:43:12.203Z,24.51
2016-07-02T12:44:12.826Z,24.62
2016-07-02T12:45:12.826Z,24.5
2016-07-02T12:46:12.830Z,24.55
2016-07-02T12:47:12.847Z,24.55
2016-07-02T12:48:13.038Z,24.53
2016-07-02T12:49:12.846Z,24.5
2016-07-02T12:50:12.839Z,24.5
2016-07-02T12:51:12.841Z,24.37
2016-07-02T12:52:12.843Z,24.28
2016-07-02T12:53:12.845Z,24.11
2016-07-02T12:54:12.846Z,24.04
2016-07-02T12:55:12.852Z,23.95
2016-07-02T12:56:12.859Z,23.88